Latest Coastal Weather Observations for Merimbula

IDN60701

Issued at 12:01 am EST Saturday 30 April 2016 (issued every 10 minutes, with the page automatically refreshed every 10 minutes)

About coastal observations | Map of coastal stations | Coastal observations for NSW | Marine services | Other Formats
Station Details ID: 069147 Name: MERIMBULA AIRPORT AWS Lat: -36.91 Lon: 149.90 Height: 1.5 m
Data from the previous 72 hours. | See also: Recent months at Merimbula
Date/Time
EST
Temp

°C
Wind Pressure Rain
since 9am
mm
Weather Cloud Vis
km
Sea
Height
m
Swell
Dir
 
Speed
knots
Gust
knots
hPa Trend Height
m
Period
s
Dir
29/11:30pm 17.6 CALM 0 0 1015.2 - 0.2 - Partly cloudy 10 - - - -
29/11:00pm 17.9 CALM 0 0 1015.5 - 0.2 - Cloudy 10 - - - -
29/10:30pm 18.2 CALM 0 0 1015.5 - 0.2 - Cloudy 10 - - - -
29/10:00pm 19.0 CALM 0 0 1015.5 - 0.2 - Cloudy 10 - - - -
29/09:30pm 19.5 NNW 4 5 1015.3 - 0.2 - Cloudy 10 - - - -
29/09:00pm 19.5 NNW 6 7 1015.6 - 0.2 - Cloudy 10 - - - -
29/08:30pm 18.4 CALM 0 0 1015.4 - 0.2 - - 10 - - - -
29/08:00pm 18.3 CALM 0 0 1015.1 - 0.2 - Partly cloudy 10 - - - -
29/07:30pm 18.4 CALM 0 0 1015.2 - 0.2 - Cloudy 10 - - - -
29/07:00pm 18.5 CALM 0 0 1015.1 - 0.2 - Cloudy 10 - - - -
29/06:30pm 18.6 CALM 0 0 1015.1 - 0.2 - Partly cloudy 10 - - - -
29/06:00pm 19.0 CALM 0 0 1014.8 - 0.2 - Cloudy 10 - - - -
29/05:30pm 19.3 CALM 0 0 1014.5 - 0.2 - - 10 - - - -
29/05:00pm 20.7 CALM 0 0 1014.5 - 0.2 - - 10 - - - -
29/04:30pm 21.0 ENE 4 6 1014.4 - 0.2 - Partly cloudy 10 - - - -
29/04:00pm 21.5 N 4 7 1014.8 - 0.2 - Partly cloudy 10 - - - -
29/03:30pm 22.1 NE 10 17 1014.5 - 0.2 - - 10 - - - -
29/03:00pm 23.5 NNE 8 14 1014.7 - 0.2 - - 10 - - - -
29/02:30pm 24.2 NNE 8 13 1014.6 - 0.2 - - 10 - - - -
29/02:00pm 23.3 NE 10 14 1014.9 - 0.2 - - 10 - - - -
29/01:30pm 24.3 NE 8 13 1015.1 - 0.2 - - 10 - - - -
29/01:00pm 25.2 NE 9 13 1015.0 - 0.2 - - 10 - - - -
29/12:30pm 25.9 ENE 7 9 1016.0 - 0.2 - - 10 - - - -
29/12:00pm 24.3 CALM 0 0 1016.8 - 0.2 - Mostly clear 10 - - - -
29/11:30am 21.6 SE 5 7 1017.4 - 0.2 - - 10 - - - -
29/11:00am 21.8 CALM 0 0 1018.0 - 0.2 - - 10 - - - -
29/10:30am 22.9 CALM 0 0 1018.5 - 0.2 - - 10 - - - -
29/10:23am 21.3 CALM 0 0 1018.5 - 0.2 - - 10 - - - -
29/10:04am 19.9 CALM 0 3 1018.7 - 0.0 - - 4 - - - -
29/10:00am 18.9 CALM 0 3 1018.8 - 0.0 - - 10 - - - -
29/09:30am 17.2 CALM 0 4 1019.4 - 0.0 - - 10 - - - -
29/09:00am 15.6 S 1 3 1019.6 - 0.0 - - 10 - - - -
29/08:30am 14.6 CALM 0 0 1019.5 - 0.0 - - 10 - - - -
29/08:00am 13.7 CALM 0 0 1019.7 - 0.0 - - 10 - - - -
29/07:30am 12.8 CALM 0 0 1019.7 - 0.0 - - 10 - - - -
29/07:00am 12.0 CALM 0 0 1019.6 - 0.0 - - 10 - - - -
29/06:30am 12.3 CALM 0 0 1019.5 - 0.0 - - 10 - - - -
29/06:00am 12.2 CALM 0 0 1019.4 - 0.0 - - 10 - - - -
29/05:30am 11.5 CALM 0 0 1019.2 - 0.0 - - 10 - - - -
29/05:00am 11.9 SSW 5 6 1019.2 - 0.0 - - 10 - - - -
29/04:30am 11.8 SW 3 4 1019.4 - 0.0 - - 10 - - - -
29/04:00am 12.2 SW 5 6 1019.3 - 0.0 - - 10 - - - -
29/03:30am 12.0 SSW 4 5 1019.3 - 0.0 - - 10 - - - -
29/03:00am 12.1 SSW 1 5 1019.5 - 0.0 - - 10 - - - -
29/02:30am 12.3 CALM 0 0 1019.8 - 0.0 - - 10 - - - -
29/02:00am 13.1 CALM 0 0 1019.9 - 0.0 - - 10 - - - -
29/01:30am 13.0 CALM 0 0 1019.9 - 0.0 - - 10 - - - -
29/01:00am 13.5 CALM 0 0 1020.1 - 0.0 - - 10 - - - -
29/12:30am 13.5 CALM 0 0 1020.5 - 0.0 - - 10 - - - -
29/12:00am 13.5 CALM 0 0 1020.5 - 0.0 - - 10 - - - -
 
Date/Time
EST
Temp

°C
Wind Pressure Rain
since 9am
mm
Weather Cloud Vis
km
Sea
Height
m
Swell
Dir
 
Speed
knots
Gust
knots
hPa Trend Height
m
Period
s
Dir
28/11:30pm 13.4 CALM 0 0 1020.5 - 0.0 - - 10 - - - -
28/11:00pm 13.3 CALM 0 0 1020.8 - 0.0 - - 10 - - - -
28/10:30pm 13.1 CALM 0 0 1021.0 - 0.0 - - 10 - - - -
28/10:00pm 13.5 CALM 0 0 1021.1 - 0.0 - - 10 - - - -
28/09:30pm 13.4 CALM 0 0 1021.2 - 0.0 - - 10 - - - -
28/09:00pm 13.5 CALM 0 0 1021.1 - 0.0 - - 10 - - - -
28/08:30pm 13.9 CALM 0 0 1021.0 - 0.0 - - 10 - - - -
28/08:00pm 14.2 CALM 0 0 1020.9 - 0.0 - - 10 - - - -
28/07:30pm 14.4 CALM 0 0 1020.7 - 0.0 - - 10 - - - -
28/07:00pm 15.6 CALM 0 0 1020.5 - 0.0 - - 10 - - - -
28/06:30pm 15.7 CALM 0 0 1020.3 - 0.0 - - 10 - - - -
28/06:00pm 16.9 WSW 2 5 1020.3 - 0.0 - - 10 - - - -
28/05:30pm 18.3 CALM 0 0 1019.9 - 0.0 - - 10 - - - -
28/05:00pm 20.2 SE 2 5 1019.5 - 0.0 - - 10 - - - -
28/04:30pm 22.4 CALM 0 0 1019.2 - 0.0 - - 10 - - - -
28/04:00pm 23.3 NE 5 8 1019.2 - 0.0 - - 10 - - - -
28/03:30pm 23.7 NE 7 9 1019.1 - 0.0 - - 10 - - - -
28/03:00pm 23.9 NE 7 11 1018.8 - 0.0 - - 10 - - - -
28/02:30pm 24.6 NE 8 10 1019.0 - 0.0 - - 10 - - - -
28/02:00pm 24.1 NE 6 11 1019.2 - 0.0 - - 10 - - - -
28/01:30pm 24.5 NE 7 11 1019.5 - 0.0 - - 10 - - - -
28/01:00pm 24.8 ENE 5 9 1019.6 - 0.0 - - 10 - - - -
28/12:30pm 23.6 ENE 3 5 1020.0 - 0.0 - - 10 - - - -
28/12:00pm 21.7 SE 5 7 1020.5 - 0.0 - - 10 - - - -
28/11:30am 21.9 ESE 5 7 1020.9 - 0.0 - - 10 - - - -
28/11:00am 21.1 E 1 5 1021.2 - 0.0 - - 10 - - - -
28/10:30am 20.4 CALM 0 0 1021.4 - 0.0 - - 10 - - - -
28/10:00am 17.5 CALM 0 0 1021.7 - 0.0 - - 10 - - - -
28/09:30am 15.6 CALM 0 0 1021.9 - 0.0 - - 10 - - - -
28/09:00am 13.6 CALM 0 0 1022.1 - 0.0 - - 10 - - - -
28/08:30am 12.6 CALM 0 0 1022.0 - 0.0 - - 10 - - - -
28/08:00am 11.6 CALM 0 0 1021.9 - 0.0 - - 10 - - - -
28/07:30am 10.0 SSW 3 5 1021.6 - 0.0 - - 10 - - - -
28/07:00am 9.0 SW 3 4 1021.2 - 0.0 - - 10 - - - -
28/06:30am 9.0 SSW 4 5 1021.1 - 0.0 - - 10 - - - -
28/06:00am 8.9 SSW 4 5 1021.0 - 0.0 - - 10 - - - -
28/05:30am 9.3 SSW 4 6 1021.0 - 0.0 - - 10 - - - -
28/05:00am 9.5 SW 4 6 1020.9 - 0.0 - - 10 - - - -
28/04:30am 9.6 SW 4 5 1020.7 - 0.0 - - 10 - - - -
28/04:00am 9.7 SSW 5 6 1020.6 - 0.0 - - 10 - - - -
28/03:30am 10.1 SSW 6 6 1020.4 - 0.0 - - 10 - - - -
28/03:00am 10.1 SSW 4 5 1020.5 - 0.0 - - 10 - - - -
28/02:30am 10.0 CALM 0 0 1020.6 - 0.0 - - 10 - - - -
28/02:00am 10.0 CALM 0 0 1020.6 - 0.0 - - 10 - - - -
28/01:30am 11.1 SSW 3 6 1020.5 - 0.0 - - 10 - - - -
28/01:00am 11.1 SSW 6 7 1020.4 - 0.0 - - 10 - - - -
28/12:30am 10.7 CALM 0 0 1020.4 - 0.0 - - 10 - - - -
28/12:00am 11.3 CALM 0 0 1020.5 - 0.0 - - 10 - - - -
 
Date/Time
EST
Temp

°C
Wind Pressure Rain
since 9am
mm
Weather Cloud Vis
km
Sea
Height
m
Swell
Dir
 
Speed
knots
Gust
knots
hPa Trend Height
m
Period
s
Dir
27/11:30pm 11.7 CALM 0 0 1020.4 - 0.0 - - 10 - - - -
27/11:00pm 12.1 CALM 0 0 1020.4 - 0.0 - - 10 - - - -
27/10:30pm 11.8 CALM 0 0 1020.7 - 0.0 - - 10 - - - -
27/10:00pm 12.1 CALM 0 0 1020.8 - 0.0 - - 10 - - - -
27/09:30pm 13.0 CALM 0 0 1021.2 - 0.0 - - 10 - - - -
27/09:00pm 13.9 CALM 0 0 1021.2 - 0.0 - - 10 - - - -
27/08:30pm 12.8 CALM 0 0 1021.5 - 0.0 - - 10 - - - -
27/08:00pm 14.1 CALM 0 0 1021.5 - 0.0 - - 10 - - - -
27/07:30pm 15.0 CALM 0 0 1021.5 - 0.0 - - 10 - - - -
27/07:00pm 15.7 CALM 0 0 1021.5 - 0.0 - - 10 - - - -
27/06:30pm 18.0 N 1 5 1021.3 - 0.0 - - 10 - - - -
27/06:00pm 19.3 N 5 7 1021.1 - 0.0 - - 10 - - - -
27/05:30pm 19.3 NNE 5 7 1020.6 - 0.0 - - 10 - - - -
27/05:00pm 19.8 NE 6 9 1020.3 - 0.0 - - 10 - - - -
27/04:30pm 21.0 NNE 5 8 1020.4 - 0.0 - - 10 - - - -
27/04:00pm 21.4 NE 7 11 1020.2 - 0.0 - - 10 - - - -
27/03:30pm 21.6 NE 9 16 1020.2 - 0.0 - - 10 - - - -
27/03:00pm 21.9 NNE 8 13 1020.3 - 0.0 - - 10 - - - -
27/02:30pm 22.3 NE 8 14 1020.4 - 0.0 - - 10 - - - -
27/02:00pm 22.5 NE 10 14 1020.4 - 0.0 - - 10 - - - -
27/01:30pm 22.6 NE 10 14 1020.7 - 0.0 - - 10 - - - -
27/01:00pm 22.7 NE 8 12 1021.1 - 0.0 - - 10 - - - -
27/12:30pm 22.0 NE 8 11 1021.7 - 0.0 - - 10 - - - -
27/12:00pm 21.6 NE 8 11 1022.2 - 0.0 - - 10 - - - -
27/11:30am 20.6 SE 5 7 1022.7 - 0.0 - - 10 - - - -
27/11:00am 19.9 ESE 3 7 1023.3 - 0.0 - - 10 - - - -
27/10:30am 18.9 CALM 0 0 1023.7 - 0.0 - - 10 - - - -
27/10:00am 17.5 CALM 0 0 1024.3 - 0.0 - - 10 - - - -
27/09:30am 15.8 CALM 0 0 1024.8 - 0.0 - - 10 - - - -
27/09:00am 14.2 CALM 0 0 1025.1 - 0.2 - - 10 - - - -
27/08:30am 12.3 CALM 0 0 1025.2 - 0.2 - - 10 - - - -
27/08:00am 10.2 SSW 5 8 1025.1 - 0.2 - - 10 - - - -
27/07:30am 9.3 CALM 0 0 1024.8 - 0.2 - Partly cloudy - - - - -
27/07:00am 7.7 CALM 0 0 1024.8 - 0.2 - Partly cloudy - - - - -
27/06:30am 8.0 CALM 0 0 1024.6 - 0.2 - Partly cloudy - - - - -
27/06:28am 8.1 CALM 0 0 1024.6 - 0.2 - Partly cloudy - - - - -
27/06:00am 8.5 CALM 0 0 1024.5 - 0.0 - Mostly cloudy - - - - -
27/05:30am 8.7 CALM 0 0 1024.4 - 0.0 - Cloudy - - - - -
27/05:10am 8.3 CALM 0 0 1024.3 - 0.0 - Partly cloudy - - - - -
27/05:00am 8.1 CALM 0 0 1024.3 - 0.0 - Partly cloudy - - - - -
27/04:30am 8.7 CALM 0 0 1024.3 - 0.0 - - - - - - -
27/04:17am 8.8 CALM 0 0 1024.4 - 0.0 - Partly cloudy - - - - -
27/04:00am 8.9 CALM 0 0 1024.3 - 0.0 - Partly cloudy - - - - -
27/03:53am 8.9 CALM 0 0 1024.4 - 0.0 - Partly cloudy - - - - -
27/03:30am 8.9 CALM 0 0 1024.5 - 0.0 - - - - - - -
27/03:00am 9.6 CALM 0 0 1024.7 - 0.0 - - - - - - -
27/02:30am 9.0 SSW 1 5 1024.9 - 0.0 - - - - - - -
27/02:00am 9.8 CALM 0 0 1025.2 - 0.0 - - - - - - -
27/01:30am 9.8 SW 5 6 1025.4 - 0.0 - Partly cloudy - - - - -
27/01:23am 9.8 SW 5 6 1025.4 - 0.0 - Partly cloudy - - - - -
27/01:11am 9.7 SW 4 5 1025.4 - 0.0 - Partly cloudy - - - - -
27/01:00am 9.7 WSW 3 4 1025.6 - 0.0 - - - - - - -
27/12:51am 9.7 WSW 3 4 1025.7 - 0.0 - - 5 - - - -
27/12:30am 10.2 SW 4 5 1025.9 - 0.0 - - 10 - - - -

Other Formats:

Comma delimited format used in spreadsheet applications
http://www.bom.gov.au/fwo/IDN60701/IDN60701.95929.axf

JavaScript Object Notation format (JSON) in row-major order
http://www.bom.gov.au/fwo/IDN60701/IDN60701.95929.json